Barrow, AK

9:21 AM AKDT on March 29, 2015 (GMT -0800)
Nuiqsut | | Change Station
CLOSE
Current Station
Airport
Location: Nuiqsut,
Elevation: 39 ft
Nearby Weather Stations

Elev 39 ft 70.21 °N, 150.99 °W | Updated 28 minutes ago

Light Snow
Light Snow
2 °F
Feels Like -18 °F
N
17
Wind Variable Wind from ENE

Today
High -- | Low -- °F
--% Chance of Precip.
Yesterday
High -- | Low -- °F
Precip. -- in
7:20 AM 8:59 PM
Waxing Gibbous, 73% visible
Pressure 29.95 in
Visibility 1.0 miles
Clouds Overcast 2500 ft
Windchill -18 °F
Dew Point -3 °F
Humidity 80%
Rainfall 0.00 in
Snow Depth Not available.
UV 0 out of 12
Pollen Not available.
Air Quality Not available.
Flu Activity Not available.
METAR PAQT 291653Z AUTO 06015KT 1SM -SN OVC025 M17/M19 A2994 RMK AO2 SLP140 P0000 T11671194 TSNO

More Conditions Fewer Conditions

Pressure 29.95 in
Visibility 1.0 miles
Clouds Overcast 2500 ft
Windchill -18 °F
Dew Point -3 °F
Humidity 80%
Rainfall 0.00 in
Snow Depth Not available.
UV 0 out of 12
Pollen Not available.
Air Quality Not available.
Flu Activity Not available.
METAR PAQT 291653Z AUTO 06015KT 1SM -SN OVC025 M17/M19 A2994 RMK AO2 SLP140 P0000 T11671194 TSNO

More Conditions Fewer Conditions

10-Day Weather Forecast

Almanac

Astronomy

Mar. 29, 2015 Rise Set
Actual Time
Civil Twilight
Nautical Twilight
Astronomical Twilight
Moon
Length of Visible Light
Length of Day
Tomorrow will be .
, % of the Moon is Illuminated

Today's Extremes

State Highs State Lows

Community

WunderPhotos

Upload Photos

1,809,302 photos uploaded!

WunderBlogs® & News

Nearby

Air Quality

  Air Quality AQ Index Pollutant
Not available.

Snow Depth

Station Depth Elevation

Earthquake Activity

City Distance Mag. Time & Date
Minimum magnitude displayed is 2.5.

Coastal Water Temperatures

Place Temperature

Stations

Nearby Weather Stations

Station Location Temp. Windchill Dew Point Humidity Wind Precip. Elev Updated Type